createdAt,value
2018-09-09T00:00:52.292Z,50.74
2018-09-09T00:03:20.918Z,51.36
2018-09-09T00:05:49.449Z,50.94
2018-09-09T00:08:17.929Z,50.61
2018-09-09T00:10:46.467Z,51.36
2018-09-09T00:13:15.027Z,50.70
2018-09-09T00:15:43.578Z,51.46
2018-09-09T00:18:12.062Z,51.35
2018-09-09T00:20:40.658Z,51.46
2018-09-09T00:23:09.168Z,51.00
2018-09-09T00:25:37.688Z,51.60
2018-09-09T00:28:06.387Z,51.32
2018-09-09T00:30:35.044Z,51.83
2018-09-09T00:33:03.501Z,51.90
2018-09-09T00:35:32.034Z,51.13
2018-09-09T00:38:00.522Z,51.44
2018-09-09T00:40:29.067Z,51.14
2018-09-09T00:42:57.543Z,51.89
2018-09-09T00:45:26.293Z,51.93
2018-09-09T00:47:54.875Z,51.62
2018-09-09T00:50:28.683Z,52.29
2018-09-09T00:53:02.338Z,51.74
2018-09-09T00:55:30.869Z,51.81
2018-09-09T00:57:59.344Z,51.79
2018-09-09T01:00:33.034Z,52.52
2018-09-09T01:03:01.463Z,51.89
2018-09-09T01:05:29.914Z,52.36
2018-09-09T01:07:58.391Z,52.07
2018-09-09T01:10:26.894Z,52.13
2018-09-09T01:12:55.399Z,51.73
2018-09-09T01:15:23.917Z,52.74
2018-09-09T01:17:52.434Z,52.44
2018-09-09T01:20:20.990Z,52.53
2018-09-09T01:22:49.513Z,52.42
2018-09-09T01:25:18.000Z,51.97
2018-09-09T01:27:46.487Z,51.66
2018-09-09T01:30:15.036Z,51.88
2018-09-09T01:32:43.494Z,51.83
2018-09-09T01:35:11.965Z,52.43
2018-09-09T01:37:40.419Z,52.10
2018-09-09T01:40:08.900Z,52.21
2018-09-09T01:42:37.419Z,52.59
2018-09-09T01:45:05.952Z,52.32
2018-09-09T01:47:34.519Z,52.09
2018-09-09T01:50:02.995Z,52.72
2018-09-09T01:52:31.479Z,52.92
2018-09-09T01:54:59.973Z,51.93
2018-09-09T01:57:28.469Z,51.99
2018-09-09T01:59:56.973Z,52.12
2018-09-09T02:02:25.493Z,52.92
2018-09-09T02:04:53.991Z,52.67
2018-09-09T02:07:22.512Z,52.84
2018-09-09T02:09:51.059Z,52.78
2018-09-09T02:12:19.527Z,52.69
2018-09-09T02:14:47.995Z,52.12
2018-09-09T02:17:16.468Z,52.07
2018-09-09T02:19:44.940Z,51.88
2018-09-09T02:22:13.498Z,51.92
2018-09-09T02:24:41.965Z,51.81
2018-09-09T02:27:10.427Z,51.83
2018-09-09T02:29:38.884Z,51.96
2018-09-09T02:32:07.524Z,51.55
2018-09-09T02:34:35.983Z,51.29
2018-09-09T02:37:04.440Z,50.89
2018-09-09T02:39:32.892Z,50.34
2018-09-09T02:42:01.352Z,50.74
2018-09-09T02:44:29.785Z,50.38
2018-09-09T02:46:58.260Z,51.17
2018-09-09T02:49:26.785Z,51.18
2018-09-09T02:51:55.260Z,50.89
2018-09-09T02:54:23.702Z,50.49
2018-09-09T02:56:52.144Z,51.09
2018-09-09T02:59:20.679Z,50.77
2018-09-09T03:01:49.183Z,51.01
2018-09-09T03:04:17.628Z,50.92
2018-09-09T03:06:46.113Z,50.11
2018-09-09T03:09:14.605Z,50.01
2018-09-09T03:11:43.074Z,50.63
2018-09-09T03:14:11.567Z,50.78
2018-09-09T03:16:39.980Z,51.53
2018-09-09T03:19:08.445Z,51.55
2018-09-09T03:21:36.893Z,51.51
2018-09-09T03:24:05.433Z,50.83
2018-09-09T03:26:33.897Z,50.70
2018-09-09T03:29:02.416Z,51.00
2018-09-09T03:31:30.881Z,50.79
2018-09-09T03:33:59.348Z,49.95
2018-09-09T03:36:27.814Z,49.93
2018-09-09T03:38:56.299Z,49.71
2018-09-09T03:41:24.815Z,49.87
2018-09-09T03:43:53.803Z,50.86
2018-09-09T03:46:22.282Z,49.28
2018-09-09T03:48:50.749Z,49.71
2018-09-09T03:51:19.185Z,50.18
2018-09-09T03:53:47.672Z,50.16
2018-09-09T03:56:16.161Z,49.83
2018-09-09T03:58:44.626Z,49.95
2018-09-09T04:01:13.106Z,50.54
2018-09-09T04:03:41.545Z,50.02
2018-09-09T04:06:10.045Z,49.95
2018-09-09T04:08:38.527Z,49.62
2018-09-09T04:11:08.968Z,49.59
2018-09-09T04:13:38.372Z,49.63
2018-09-09T04:16:07.239Z,49.30
2018-09-09T04:18:35.684Z,49.70
2018-09-09T04:21:04.164Z,48.93
2018-09-09T04:23:32.624Z,49.03
2018-09-09T04:26:01.106Z,48.28
2018-09-09T04:28:29.562Z,48.40
2018-09-09T04:30:58.034Z,48.09
2018-09-09T04:33:26.484Z,47.69
2018-09-09T04:35:54.962Z,46.81
2018-09-09T04:38:23.505Z,46.08
2018-09-09T04:40:51.973Z,46.81
2018-09-09T04:43:20.425Z,46.70
2018-09-09T04:45:48.861Z,46.43
2018-09-09T04:48:17.343Z,47.25
2018-09-09T04:50:45.795Z,46.70
2018-09-09T04:53:14.246Z,46.46
2018-09-09T04:55:42.688Z,47.03
2018-09-09T04:58:11.167Z,46.73
2018-09-09T05:00:39.639Z,46.79
2018-09-09T05:03:08.094Z,46.83
2018-09-09T05:05:36.626Z,46.78
2018-09-09T05:08:05.102Z,47.25
2018-09-09T05:10:33.735Z,46.99
2018-09-09T05:13:02.201Z,47.04
2018-09-09T05:15:30.700Z,47.96
2018-09-09T05:17:59.175Z,47.93
2018-09-09T05:20:27.686Z,47.85
2018-09-09T05:22:56.287Z,47.53
2018-09-09T05:25:24.780Z,47.61
2018-09-09T05:27:53.314Z,47.09
2018-09-09T05:30:21.912Z,47.01
2018-09-09T05:32:50.389Z,47.82
2018-09-09T05:35:19.120Z,48.08
2018-09-09T05:37:47.623Z,46.96
2018-09-09T05:40:16.155Z,47.91
2018-09-09T05:42:44.737Z,47.58
2018-09-09T05:45:13.310Z,46.24
2018-09-09T05:47:41.863Z,46.05
2018-09-09T05:50:10.404Z,46.50
2018-09-09T05:52:38.877Z,47.83
2018-09-09T05:55:07.381Z,47.61
2018-09-09T05:57:35.934Z,47.75
2018-09-09T06:00:04.643Z,47.08
2018-09-09T06:02:33.132Z,47.62
2018-09-09T06:05:01.661Z,47.14
2018-09-09T06:07:30.226Z,47.01
2018-09-09T06:09:58.794Z,45.99
2018-09-09T06:12:27.554Z,45.63
2018-09-09T06:14:56.052Z,45.24
2018-09-09T06:17:24.509Z,46.43
2018-09-09T06:19:53.004Z,46.06
2018-09-09T06:22:21.621Z,46.08
2018-09-09T06:24:50.224Z,45.43
2018-09-09T06:27:18.837Z,46.13
2018-09-09T06:29:47.374Z,45.82
2018-09-09T06:32:15.887Z,45.25
2018-09-09T06:34:44.467Z,44.90
2018-09-09T06:37:14.244Z,45.10
2018-09-09T06:39:43.578Z,45.64
2018-09-09T06:42:12.077Z,45.84
2018-09-09T06:44:40.706Z,45.60
2018-09-09T06:47:09.226Z,45.71
2018-09-09T06:49:37.948Z,44.44
2018-09-09T06:52:06.498Z,44.77
2018-09-09T06:54:35.023Z,44.90
2018-09-09T06:57:03.616Z,45.54
2018-09-09T06:59:32.068Z,44.10
2018-09-09T07:02:00.563Z,44.48
2018-09-09T07:04:29.099Z,43.56
2018-09-09T07:06:57.761Z,44.00
2018-09-09T07:09:26.306Z,43.27
2018-09-09T07:11:54.901Z,42.77
2018-09-09T07:14:23.376Z,42.62
2018-09-09T07:16:51.870Z,42.92
2018-09-09T07:19:20.411Z,43.04
2018-09-09T07:21:50.072Z,42.88
2018-09-09T07:24:18.590Z,42.59
2018-09-09T07:26:47.104Z,42.21
2018-09-09T07:29:15.600Z,41.42
2018-09-09T07:31:44.097Z,41.56
2018-09-09T07:34:12.830Z,41.51
2018-09-09T07:36:41.346Z,41.35
2018-09-09T07:39:09.937Z,41.65
2018-09-09T07:41:38.364Z,41.06
2018-09-09T07:44:06.931Z,40.38
2018-09-09T07:46:35.527Z,39.37
2018-09-09T07:49:04.061Z,40.13
2018-09-09T07:51:32.606Z,39.57
2018-09-09T07:54:01.080Z,38.99
2018-09-09T07:56:29.724Z,37.60
2018-09-09T07:58:58.239Z,39.00
2018-09-09T08:01:26.822Z,38.43
2018-09-09T08:03:55.404Z,38.05
2018-09-09T08:06:23.936Z,37.65
2018-09-09T08:08:52.485Z,37.44
2018-09-09T08:11:21.105Z,36.65
2018-09-09T08:13:49.722Z,35.69
2018-09-09T08:16:18.266Z,34.84
2018-09-09T08:18:46.792Z,34.22
2018-09-09T08:21:15.229Z,34.42
2018-09-09T08:23:43.828Z,34.29
2018-09-09T08:26:12.368Z,34.52
2018-09-09T08:28:44.377Z,33.72
2018-09-09T08:31:13.049Z,34.31
2018-09-09T08:33:41.552Z,33.67
2018-09-09T08:36:11.136Z,32.97
2018-09-09T08:38:39.720Z,31.44
2018-09-09T08:41:08.559Z,31.27
2018-09-09T08:43:37.179Z,30.46
2018-09-09T08:46:05.887Z,30.05
2018-09-09T08:48:34.947Z,30.05
2018-09-09T08:51:03.918Z,29.33
2018-09-09T08:53:32.756Z,29.56
2018-09-09T08:56:01.418Z,28.70
2018-09-09T08:58:30.048Z,27.58
2018-09-09T09:00:58.589Z,27.32
2018-09-09T09:03:27.093Z,26.10
2018-09-09T09:05:55.699Z,24.91
2018-09-09T09:08:24.176Z,24.48
2018-09-09T09:10:52.681Z,23.30
2018-09-09T09:13:21.401Z,23.02
2018-09-09T09:15:50.083Z,21.90
2018-09-09T09:18:18.647Z,22.71
2018-09-09T09:20:47.148Z,20.75
2018-09-09T09:23:15.675Z,20.78
2018-09-09T09:25:49.644Z,20.51
2018-09-09T09:28:18.479Z,19.62
2018-09-09T09:30:47.206Z,18.94
2018-09-09T09:33:15.882Z,19.38
2018-09-09T09:35:49.067Z,19.13
2018-09-09T09:38:18.786Z,18.50
2018-09-09T09:40:47.600Z,18.88
2018-09-09T09:43:16.116Z,18.87
2018-09-09T09:45:44.803Z,18.84
2018-09-09T09:48:13.476Z,18.60
2018-09-09T09:50:42.289Z,19.15
2018-09-09T09:53:10.900Z,19.38
2018-09-09T09:55:39.749Z,19.42
2018-09-09T09:58:08.384Z,18.54
2018-09-09T10:00:41.923Z,17.99
2018-09-09T10:03:10.380Z,17.89
2018-09-09T10:05:38.998Z,16.15
2018-09-09T10:08:07.502Z,15.45
2018-09-09T10:10:36.119Z,15.41
2018-09-09T10:13:04.688Z,16.68
2018-09-09T10:15:33.228Z,17.50
2018-09-09T10:18:01.856Z,16.96
2018-09-09T10:20:30.467Z,17.16
2018-09-09T10:22:58.974Z,16.96
2018-09-09T10:25:27.543Z,17.00
2018-09-09T10:27:56.019Z,15.85
2018-09-09T10:30:24.563Z,15.06
2018-09-09T10:32:53.054Z,14.72
2018-09-09T10:35:21.782Z,13.76
2018-09-09T10:37:50.354Z,12.61
2018-09-09T10:40:19.020Z,12.92
2018-09-09T10:42:47.582Z,12.21
2018-09-09T10:45:16.052Z,12.10
2018-09-09T10:47:44.554Z,11.56
2018-09-09T10:50:13.082Z,11.50
2018-09-09T10:52:41.542Z,11.68
2018-09-09T10:55:09.948Z,11.03
2018-09-09T10:57:38.431Z,10.42
2018-09-09T11:00:07.252Z,10.20
2018-09-09T11:02:35.755Z,10.24
2018-09-09T11:05:04.237Z,10.69
2018-09-09T11:07:32.808Z,10.01
2018-09-09T11:10:01.281Z,9.68
2018-09-09T11:12:32.318Z,11.21
2018-09-09T11:15:02.026Z,11.25
2018-09-09T11:17:31.396Z,11.98
2018-09-09T11:20:00.063Z,12.96
2018-09-09T11:22:29.278Z,13.23
2018-09-09T11:24:57.697Z,13.54
2018-09-09T11:27:26.390Z,12.55
2018-09-09T11:29:54.948Z,12.62
2018-09-09T11:32:23.433Z,13.24
2018-09-09T11:34:51.943Z,13.81
2018-09-09T11:37:20.400Z,13.73
2018-09-09T11:39:48.925Z,13.19
2018-09-09T11:42:17.420Z,14.36
2018-09-09T11:44:45.923Z,14.00
2018-09-09T11:47:14.372Z,13.63
2018-09-09T11:49:42.857Z,14.12
2018-09-09T11:52:11.404Z,14.68
2018-09-09T11:54:39.921Z,14.98
2018-09-09T11:57:08.456Z,15.13
2018-09-09T11:59:36.962Z,15.13
2018-09-09T12:02:05.467Z,15.78
2018-09-09T12:04:33.939Z,15.88
2018-09-09T12:07:02.408Z,17.20
2018-09-09T12:09:30.913Z,17.47
2018-09-09T12:11:59.338Z,18.50
2018-09-09T12:14:27.888Z,18.02
2018-09-09T12:16:56.371Z,18.27
2018-09-09T12:19:24.888Z,18.76
2018-09-09T12:21:53.344Z,19.39
2018-09-09T12:24:21.816Z,19.01
2018-09-09T12:26:50.285Z,20.10
2018-09-09T12:29:18.849Z,21.46
2018-09-09T12:31:47.305Z,20.72
2018-09-09T12:34:15.841Z,20.78
2018-09-09T12:36:44.273Z,21.99
2018-09-09T12:39:12.741Z,22.49
2018-09-09T12:41:41.197Z,21.47
2018-09-09T12:44:14.853Z,21.88
2018-09-09T12:46:48.614Z,22.65
2018-09-09T12:49:17.127Z,23.59
2018-09-09T12:51:45.592Z,22.56
2018-09-09T12:54:14.073Z,22.98
2018-09-09T12:56:42.532Z,22.11
2018-09-09T12:59:11.026Z,23.45
2018-09-09T13:01:39.532Z,22.19
2018-09-09T13:04:07.973Z,22.73
2018-09-09T13:06:36.399Z,23.14
2018-09-09T13:09:06.290Z,22.58
2018-09-09T13:11:34.753Z,22.89
2018-09-09T13:14:03.218Z,23.50
2018-09-09T13:16:31.730Z,23.12
2018-09-09T13:19:00.165Z,23.09
2018-09-09T13:21:28.659Z,22.79
2018-09-09T13:23:57.136Z,23.22
2018-09-09T13:26:25.654Z,23.28
2018-09-09T13:28:54.161Z,24.76
2018-09-09T13:31:22.662Z,25.08
2018-09-09T13:33:51.092Z,24.33
2018-09-09T13:36:19.596Z,24.43
2018-09-09T13:38:48.093Z,24.30
2018-09-09T13:41:16.562Z,25.01
2018-09-09T13:43:45.036Z,24.02
2018-09-09T13:46:13.569Z,24.37
2018-09-09T13:48:42.048Z,24.94
2018-09-09T13:51:10.504Z,24.81
2018-09-09T13:53:39.026Z,25.05
2018-09-09T13:56:07.558Z,25.78
2018-09-09T13:58:36.035Z,25.49
2018-09-09T14:01:04.493Z,25.10
2018-09-09T14:16:59.771Z,26.39
2018-09-09T14:19:38.878Z,26.84
2018-09-09T14:22:07.665Z,27.19
2018-09-09T14:24:36.116Z,27.04
2018-09-09T14:27:05.386Z,27.07
2018-09-09T14:29:34.774Z,26.92
2018-09-09T14:32:04.216Z,27.62
2018-09-09T14:34:32.721Z,27.71
2018-09-09T14:37:01.241Z,27.12
2018-09-09T14:39:29.752Z,27.29
2018-09-09T14:41:58.207Z,27.36
2018-09-09T14:44:26.695Z,27.10
2018-09-09T14:46:55.333Z,27.33
2018-09-09T14:49:23.914Z,27.42
2018-09-09T14:51:52.443Z,27.59
2018-09-09T14:54:20.948Z,27.77
2018-09-09T14:56:49.424Z,27.81
2018-09-09T14:59:17.952Z,27.83
2018-09-09T15:01:46.413Z,28.23
2018-09-09T15:04:14.951Z,28.20
2018-09-09T15:06:43.488Z,28.57
2018-09-09T15:09:12.975Z,28.40
2018-09-09T15:11:41.662Z,28.57
2018-09-09T15:14:10.351Z,28.93
2018-09-09T15:16:38.937Z,28.79
2018-09-09T15:19:07.526Z,29.07
2018-09-09T15:21:36.061Z,28.73
2018-09-09T15:24:04.505Z,28.90
2018-09-09T15:26:32.994Z,28.83
2018-09-09T15:29:01.465Z,29.21
2018-09-09T15:31:29.949Z,29.17
2018-09-09T15:33:58.448Z,29.05
2018-09-09T15:36:26.939Z,28.82
2018-09-09T15:38:55.503Z,29.32
2018-09-09T15:41:24.002Z,28.75
2018-09-09T15:43:52.458Z,28.88
2018-09-09T15:46:20.935Z,28.79
2018-09-09T15:48:49.466Z,28.86
2018-09-09T15:51:17.965Z,28.51
2018-09-09T15:53:46.448Z,29.19
2018-09-09T15:56:14.957Z,28.67
2018-09-09T15:58:43.434Z,29.01
2018-09-09T16:01:11.905Z,29.33
2018-09-09T16:03:40.351Z,28.49
2018-09-09T16:06:08.832Z,29.03
2018-09-09T16:08:37.328Z,29.04
2018-09-09T16:11:05.969Z,29.15
2018-09-09T16:13:34.460Z,29.72
2018-09-09T16:16:02.968Z,30.10
2018-09-09T16:18:31.446Z,29.18
2018-09-09T16:21:00.542Z,29.34
2018-09-09T16:23:29.086Z,29.31
2018-09-09T16:25:57.604Z,28.69
2018-09-09T16:28:26.066Z,29.38
2018-09-09T16:30:54.569Z,29.88
2018-09-09T16:33:23.056Z,30.17
2018-09-09T16:35:51.701Z,30.41
2018-09-09T16:38:20.163Z,30.02
2018-09-09T16:40:48.640Z,30.23
2018-09-09T16:43:17.126Z,30.34
2018-09-09T16:45:45.676Z,31.26
2018-09-09T16:48:14.517Z,30.77
2018-09-09T16:50:42.978Z,31.56
2018-09-09T16:53:11.481Z,30.99
2018-09-09T16:55:39.941Z,30.86
2018-09-09T16:58:08.519Z,31.91
2018-09-09T17:00:37.640Z,32.39
2018-09-09T17:03:06.459Z,31.46
2018-09-09T17:05:35.223Z,31.75
2018-09-09T17:08:03.708Z,32.35
2018-09-09T17:10:32.201Z,31.84
2018-09-09T17:13:00.803Z,32.14
2018-09-09T17:15:29.265Z,32.99
2018-09-09T17:17:57.829Z,32.30
2018-09-09T17:20:26.340Z,33.17
2018-09-09T17:22:54.853Z,32.60
2018-09-09T17:25:23.368Z,32.92
2018-09-09T17:27:51.819Z,34.08
2018-09-09T17:30:20.340Z,33.17
2018-09-09T17:32:48.823Z,34.09
2018-09-09T17:35:17.279Z,34.53
2018-09-09T17:37:45.759Z,33.92
2018-09-09T17:40:14.314Z,34.05
2018-09-09T17:42:43.097Z,34.73
2018-09-09T17:45:11.630Z,34.77
2018-09-09T17:47:40.103Z,34.44
2018-09-09T17:50:08.814Z,35.22
2018-09-09T17:52:37.310Z,35.76
2018-09-09T17:55:05.946Z,35.21
2018-09-09T17:57:34.542Z,35.35
2018-09-09T18:00:03.144Z,35.70
2018-09-09T18:02:31.672Z,36.14
2018-09-09T18:05:00.073Z,36.41
2018-09-09T18:07:28.533Z,36.32
2018-09-09T18:09:56.976Z,37.06
2018-09-09T18:12:25.390Z,36.58
2018-09-09T18:14:53.921Z,36.80
2018-09-09T18:17:22.481Z,37.39
2018-09-09T18:19:50.930Z,36.87
2018-09-09T18:22:19.499Z,37.75
2018-09-09T18:24:47.953Z,37.63
2018-09-09T18:27:16.395Z,38.10
2018-09-09T18:29:44.851Z,38.15
2018-09-09T18:32:14.324Z,37.60
2018-09-09T18:34:42.760Z,37.84
2018-09-09T18:37:11.235Z,38.54
2018-09-09T18:39:39.699Z,38.85
2018-09-09T18:42:08.383Z,38.67
2018-09-09T18:44:36.833Z,38.96
2018-09-09T18:47:05.384Z,39.22
2018-09-09T18:49:33.904Z,38.81
2018-09-09T18:52:02.365Z,38.60
2018-09-09T18:54:30.877Z,38.77
2018-09-09T18:56:59.356Z,39.65
2018-09-09T18:59:27.895Z,39.66
2018-09-09T19:01:56.747Z,39.12
2018-09-09T19:04:25.212Z,40.10
2018-09-09T19:06:53.740Z,39.96
2018-09-09T19:09:22.245Z,39.54
2018-09-09T19:11:50.743Z,40.13
2018-09-09T19:14:19.225Z,40.64
2018-09-09T19:16:47.689Z,40.25
2018-09-09T19:19:16.178Z,40.23
2018-09-09T19:21:44.690Z,40.97
2018-09-09T19:24:13.112Z,40.65
2018-09-09T19:26:41.560Z,41.06
2018-09-09T19:29:10.033Z,41.46
2018-09-09T19:31:38.515Z,41.58
2018-09-09T19:34:07.046Z,41.36
2018-09-09T19:36:35.716Z,42.49
2018-09-09T19:39:05.050Z,42.40
2018-09-09T19:41:33.512Z,42.75
2018-09-09T19:44:02.065Z,42.98
2018-09-09T19:46:30.531Z,42.86
2018-09-09T19:48:58.963Z,43.11
2018-09-09T19:51:27.395Z,43.56
2018-09-09T19:53:55.874Z,43.93
2018-09-09T19:56:24.334Z,44.08
2018-09-09T19:58:52.849Z,44.50
2018-09-09T20:01:21.312Z,44.88
2018-09-09T20:03:49.842Z,44.72
2018-09-09T20:06:18.321Z,45.55
2018-09-09T20:08:46.946Z,45.06
2018-09-09T20:11:15.442Z,45.87
2018-09-09T20:13:44.112Z,45.80
2018-09-09T20:16:12.728Z,45.58
2018-09-09T20:18:41.334Z,45.93
2018-09-09T20:21:10.417Z,45.54
2018-09-09T20:23:38.940Z,45.92
2018-09-09T20:26:07.482Z,46.24
2018-09-09T20:28:36.020Z,46.56
2018-09-09T20:31:05.118Z,46.27
2018-09-09T20:33:33.693Z,47.00
2018-09-09T20:36:02.260Z,46.46
2018-09-09T20:38:30.864Z,47.30
2018-09-09T20:40:59.536Z,46.91
2018-09-09T20:43:28.134Z,47.51
2018-09-09T20:45:56.850Z,47.29
2018-09-09T20:48:25.317Z,47.22
2018-09-09T20:50:53.862Z,47.65
2018-09-09T20:53:22.410Z,48.11
2018-09-09T20:55:50.978Z,47.50
2018-09-09T20:58:19.467Z,47.62
2018-09-09T21:00:48.135Z,47.81
2018-09-09T21:03:17.772Z,48.63
2018-09-09T21:05:46.311Z,48.11
2018-09-09T21:08:14.796Z,48.59
2018-09-09T21:10:43.377Z,48.86
2018-09-09T21:13:11.862Z,49.08
2018-09-09T21:15:40.366Z,48.87
2018-09-09T21:18:08.854Z,49.13
2018-09-09T21:20:37.310Z,49.94
2018-09-09T21:23:05.801Z,49.55
2018-09-09T21:25:34.312Z,49.45
2018-09-09T21:28:02.815Z,50.40
2018-09-09T21:30:31.289Z,49.80
2018-09-09T21:32:59.738Z,50.62
2018-09-09T21:35:28.230Z,50.60
2018-09-09T21:37:56.657Z,50.31
2018-09-09T21:40:25.092Z,50.60
2018-09-09T21:42:53.532Z,50.56
2018-09-09T21:45:21.953Z,50.42
2018-09-09T21:47:50.416Z,51.14
2018-09-09T21:50:18.848Z,50.69
2018-09-09T21:52:47.400Z,51.33
2018-09-09T21:55:15.941Z,50.91
2018-09-09T21:57:44.461Z,51.43
2018-09-09T22:00:13.826Z,51.47
2018-09-09T22:02:43.723Z,51.30
2018-09-09T22:05:12.234Z,51.40
2018-09-09T22:07:40.768Z,51.56
2018-09-09T22:10:09.331Z,51.40
2018-09-09T22:12:37.916Z,52.08
2018-09-09T22:15:06.464Z,51.78
2018-09-09T22:17:35.111Z,52.17
2018-09-09T22:20:03.813Z,52.04
2018-09-09T22:22:32.410Z,51.86
2018-09-09T22:25:00.940Z,52.68
2018-09-09T22:27:29.489Z,52.15
2018-09-09T22:29:58.062Z,52.23
2018-09-09T22:32:26.553Z,52.97
2018-09-09T22:34:55.168Z,52.78
2018-09-09T22:37:23.725Z,53.23
2018-09-09T22:39:52.184Z,53.11
2018-09-09T22:42:21.062Z,52.73
2018-09-09T22:44:49.648Z,52.70
2018-09-09T22:47:18.335Z,53.16
2018-09-09T22:49:46.784Z,52.81
2018-09-09T22:52:15.547Z,52.66
2018-09-09T22:54:44.052Z,53.25
2018-09-09T22:57:12.712Z,52.85
2018-09-09T22:59:41.143Z,53.40
2018-09-09T23:02:09.617Z,52.88
2018-09-09T23:04:38.081Z,53.49
2018-09-09T23:07:06.491Z,52.71
2018-09-09T23:09:34.961Z,53.27
2018-09-09T23:12:03.385Z,52.94
2018-09-09T23:14:31.874Z,53.33
2018-09-09T23:17:00.305Z,52.59
2018-09-09T23:19:28.767Z,53.44
2018-09-09T23:21:57.209Z,53.73
2018-09-09T23:24:25.713Z,53.56
2018-09-09T23:26:54.117Z,53.47
2018-09-09T23:29:22.561Z,53.37
2018-09-09T23:31:50.995Z,53.10
2018-09-09T23:34:19.479Z,52.78
2018-09-09T23:36:47.889Z,53.23
2018-09-09T23:39:16.359Z,52.72
2018-09-09T23:41:44.809Z,53.51
2018-09-09T23:44:13.287Z,52.98
2018-09-09T23:46:41.750Z,53.46
2018-09-09T23:49:10.184Z,53.16
2018-09-09T23:51:38.656Z,52.54
2018-09-09T23:54:07.225Z,53.11
2018-09-09T23:56:35.740Z,52.76
2018-09-09T23:59:04.298Z,53.00
